Grimsby, Canada
Current Conditions -  °F | °C
As of 6:15 PM on Thursday 27 Nov 2014 (Local Time) from CYHM Reporting Station
Snow Showers Snow Showers  
Wind Chill: 22°   Ceiling: 2600
Heat Index: 30°   Visibility: 2mi
Dew Point: 27°   Wind: 9mph
Humidity: 86%   Direction: 230°SW
Pressure: 30.06"   Gusts: NA
Location:  43.2°N, 79.58°W
Report Text: CYHM 272315Z 23008KT 2SM -SHSN SCT012 OVC026 M01/M03 A3006 RMK SN2SF2SC4 SLP191
Loading
Personal Weather Stations






























Interactive Weather Map New forecast layout! Learn more

10-Day Weather Forecast

Advertisements
Track Severe Weather on mobile